sensor_id;sensor_type;location;lat;lon;timestamp;P1;durP1;ratioP1;P2;durP2;ratioP2
75548;SDS011;64133;56.002;37.208;2022-10-16T00:02:15;13.95;;;6.30;;
75548;SDS011;64133;56.002;37.208;2022-10-16T00:07:20;9.15;;;4.87;;
75548;SDS011;64133;56.002;37.208;2022-10-16T00:12:25;11.55;;;5.35;;
75548;SDS011;64133;56.002;37.208;2022-10-16T00:17:30;11.85;;;6.05;;
75548;SDS011;64133;56.002;37.208;2022-10-16T00:22:35;9.65;;;5.10;;
75548;SDS011;64133;56.002;37.208;2022-10-16T00:27:40;10.63;;;5.83;;
75548;SDS011;64133;56.002;37.208;2022-10-16T00:32:45;12.60;;;6.65;;
75548;SDS011;64133;56.002;37.208;2022-10-16T00:37:50;10.25;;;6.00;;
75548;SDS011;64133;56.002;37.208;2022-10-16T00:42:55;10.80;;;5.12;;
75548;SDS011;64133;56.002;37.208;2022-10-16T00:48:00;9.00;;;4.87;;
75548;SDS011;64133;56.002;37.208;2022-10-16T00:53:05;12.45;;;5.78;;
75548;SDS011;64133;56.002;37.208;2022-10-16T00:58:10;10.70;;;5.60;;
75548;SDS011;64133;56.002;37.208;2022-10-16T01:03:27;12.60;;;5.55;;
75548;SDS011;64133;56.002;37.208;2022-10-16T01:08:32;13.30;;;6.80;;
75548;SDS011;64133;56.002;37.208;2022-10-16T01:13:38;11.35;;;6.28;;
75548;SDS011;64133;56.002;37.208;2022-10-16T01:18:42;14.83;;;5.78;;
75548;SDS011;64133;56.002;37.208;2022-10-16T01:23:48;13.38;;;6.60;;
75548;SDS011;64133;56.002;37.208;2022-10-16T01:29:01;11.03;;;5.72;;
75548;SDS011;64133;56.002;37.208;2022-10-16T01:34:06;12.75;;;5.80;;
75548;SDS011;64133;56.002;37.208;2022-10-16T01:39:11;11.95;;;5.95;;
75548;SDS011;64133;56.002;37.208;2022-10-16T01:44:16;10.72;;;5.83;;
75548;SDS011;64133;56.002;37.208;2022-10-16T01:49:21;10.28;;;5.08;;
75548;SDS011;64133;56.002;37.208;2022-10-16T01:54:27;10.85;;;5.70;;
75548;SDS011;64133;56.002;37.208;2022-10-16T01:59:31;11.22;;;5.28;;
75548;SDS011;64133;56.002;37.208;2022-10-16T02:04:37;8.13;;;5.33;;
75548;SDS011;64133;56.002;37.208;2022-10-16T02:09:42;13.25;;;5.97;;
75548;SDS011;64133;56.002;37.208;2022-10-16T02:14:47;14.15;;;7.03;;
75548;SDS011;64133;56.002;37.208;2022-10-16T02:19:53;9.83;;;5.72;;
75548;SDS011;64133;56.002;37.208;2022-10-16T02:24:58;11.85;;;5.90;;
75548;SDS011;64133;56.002;37.208;2022-10-16T02:30:04;11.68;;;5.80;;
75548;SDS011;64133;56.002;37.208;2022-10-16T02:35:08;10.48;;;5.33;;
75548;SDS011;64133;56.002;37.208;2022-10-16T02:40:13;11.95;;;5.50;;
75548;SDS011;64133;56.002;37.208;2022-10-16T02:45:19;13.75;;;4.87;;
75548;SDS011;64133;56.002;37.208;2022-10-16T02:50:24;10.58;;;4.53;;
75548;SDS011;64133;56.002;37.208;2022-10-16T02:55:29;9.45;;;5.70;;
75548;SDS011;64133;56.002;37.208;2022-10-16T03:00:34;10.95;;;4.78;;
75548;SDS011;64133;56.002;37.208;2022-10-16T03:05:39;12.85;;;5.55;;
75548;SDS011;64133;56.002;37.208;2022-10-16T03:10:44;7.17;;;3.98;;
75548;SDS011;64133;56.002;37.208;2022-10-16T03:15:49;11.53;;;6.08;;
75548;SDS011;64133;56.002;37.208;2022-10-16T03:20:54;10.32;;;5.87;;
75548;SDS011;64133;56.002;37.208;2022-10-16T03:25:59;10.40;;;6.05;;
75548;SDS011;64133;56.002;37.208;2022-10-16T03:31:05;14.23;;;5.67;;
75548;SDS011;64133;56.002;37.208;2022-10-16T03:36:10;10.63;;;5.40;;
75548;SDS011;64133;56.002;37.208;2022-10-16T03:41:15;10.00;;;5.15;;
75548;SDS011;64133;56.002;37.208;2022-10-16T03:46:20;11.28;;;5.50;;
75548;SDS011;64133;56.002;37.208;2022-10-16T03:51:25;11.48;;;5.70;;
75548;SDS011;64133;56.002;37.208;2022-10-16T03:56:30;11.53;;;6.55;;
75548;SDS011;64133;56.002;37.208;2022-10-16T04:01:35;10.68;;;5.08;;
75548;SDS011;64133;56.002;37.208;2022-10-16T04:06:40;8.68;;;4.90;;
75548;SDS011;64133;56.002;37.208;2022-10-16T04:11:45;14.90;;;5.55;;
75548;SDS011;64133;56.002;37.208;2022-10-16T04:16:50;9.25;;;4.53;;
75548;SDS011;64133;56.002;37.208;2022-10-16T04:21:55;8.78;;;4.15;;
75548;SDS011;64133;56.002;37.208;2022-10-16T04:27:00;7.65;;;3.27;;
75548;SDS011;64133;56.002;37.208;2022-10-16T04:32:06;10.40;;;4.50;;
75548;SDS011;64133;56.002;37.208;2022-10-16T04:37:12;9.93;;;4.87;;
75548;SDS011;64133;56.002;37.208;2022-10-16T04:42:17;8.78;;;4.05;;
75548;SDS011;64133;56.002;37.208;2022-10-16T04:47:22;8.48;;;5.12;;
75548;SDS011;64133;56.002;37.208;2022-10-16T04:52:27;8.53;;;4.00;;
75548;SDS011;64133;56.002;37.208;2022-10-16T04:57:35;8.48;;;4.70;;
75548;SDS011;64133;56.002;37.208;2022-10-16T05:02:40;8.23;;;4.92;;
75548;SDS011;64133;56.002;37.208;2022-10-16T05:07:45;8.23;;;4.15;;
75548;SDS011;64133;56.002;37.208;2022-10-16T05:12:50;7.30;;;3.77;;
75548;SDS011;64133;56.002;37.208;2022-10-16T05:17:55;7.58;;;5.15;;
75548;SDS011;64133;56.002;37.208;2022-10-16T05:23:00;7.40;;;4.70;;
75548;SDS011;64133;56.002;37.208;2022-10-16T05:28:05;9.10;;;4.47;;
75548;SDS011;64133;56.002;37.208;2022-10-16T05:33:10;8.35;;;4.42;;
75548;SDS011;64133;56.002;37.208;2022-10-16T05:38:15;8.53;;;4.70;;
75548;SDS011;64133;56.002;37.208;2022-10-16T05:43:21;6.25;;;4.00;;
75548;SDS011;64133;56.002;37.208;2022-10-16T05:48:26;6.60;;;4.22;;
75548;SDS011;64133;56.002;37.208;2022-10-16T05:53:32;7.00;;;4.37;;
75548;SDS011;64133;56.002;37.208;2022-10-16T05:58:37;7.87;;;4.12;;
75548;SDS011;64133;56.002;37.208;2022-10-16T06:03:43;6.67;;;4.45;;
75548;SDS011;64133;56.002;37.208;2022-10-16T06:08:48;9.38;;;4.97;;
75548;SDS011;64133;56.002;37.208;2022-10-16T06:13:54;12.18;;;5.25;;
75548;SDS011;64133;56.002;37.208;2022-10-16T06:18:58;6.20;;;3.95;;
75548;SDS011;64133;56.002;37.208;2022-10-16T06:24:03;7.95;;;4.20;;
75548;SDS011;64133;56.002;37.208;2022-10-16T06:29:08;8.23;;;4.83;;
75548;SDS011;64133;56.002;37.208;2022-10-16T06:34:14;8.90;;;4.45;;
75548;SDS011;64133;56.002;37.208;2022-10-16T06:39:19;7.67;;;3.65;;
75548;SDS011;64133;56.002;37.208;2022-10-16T06:44:27;11.35;;;3.83;;
75548;SDS011;64133;56.002;37.208;2022-10-16T06:49:32;6.67;;;4.35;;
75548;SDS011;64133;56.002;37.208;2022-10-16T06:54:37;7.37;;;5.00;;
75548;SDS011;64133;56.002;37.208;2022-10-16T06:59:43;7.67;;;4.42;;
75548;SDS011;64133;56.002;37.208;2022-10-16T07:04:48;7.12;;;4.15;;
75548;SDS011;64133;56.002;37.208;2022-10-16T07:09:53;7.53;;;4.58;;
75548;SDS011;64133;56.002;37.208;2022-10-16T07:14:58;6.17;;;3.87;;
75548;SDS011;64133;56.002;37.208;2022-10-16T07:20:05;7.37;;;4.28;;
75548;SDS011;64133;56.002;37.208;2022-10-16T07:25:11;6.22;;;3.72;;
75548;SDS011;64133;56.002;37.208;2022-10-16T07:30:16;7.33;;;4.28;;
75548;SDS011;64133;56.002;37.208;2022-10-16T07:35:21;6.35;;;4.28;;
75548;SDS011;64133;56.002;37.208;2022-10-16T07:40:26;5.62;;;3.92;;
75548;SDS011;64133;56.002;37.208;2022-10-16T07:45:31;7.25;;;4.70;;
75548;SDS011;64133;56.002;37.208;2022-10-16T07:50:36;9.03;;;4.20;;
75548;SDS011;64133;56.002;37.208;2022-10-16T07:55:41;11.90;;;4.15;;
75548;SDS011;64133;56.002;37.208;2022-10-16T08:00:46;7.12;;;4.17;;
75548;SDS011;64133;56.002;37.208;2022-10-16T08:05:51;5.80;;;3.75;;
75548;SDS011;64133;56.002;37.208;2022-10-16T08:10:56;6.95;;;4.20;;
75548;SDS011;64133;56.002;37.208;2022-10-16T08:16:02;7.67;;;3.58;;
75548;SDS011;64133;56.002;37.208;2022-10-16T08:21:07;6.92;;;3.72;;
75548;SDS011;64133;56.002;37.208;2022-10-16T08:26:12;8.20;;;3.40;;
75548;SDS011;64133;56.002;37.208;2022-10-16T08:31:17;7.22;;;4.05;;
75548;SDS011;64133;56.002;37.208;2022-10-16T09:00:11;7.87;;;2.92;;
75548;SDS011;64133;56.002;37.208;2022-10-16T09:05:20;8.35;;;2.85;;
75548;SDS011;64133;56.002;37.208;2022-10-16T09:10:32;5.67;;;2.40;;
75548;SDS011;64133;56.002;37.208;2022-10-16T09:15:39;4.75;;;2.50;;
75548;SDS011;64133;56.002;37.208;2022-10-16T09:20:48;5.97;;;2.20;;
75548;SDS011;64133;56.002;37.208;2022-10-16T09:25:52;6.78;;;2.85;;
75548;SDS011;64133;56.002;37.208;2022-10-16T09:30:58;9.00;;;2.60;;
75548;SDS011;64133;56.002;37.208;2022-10-16T09:36:03;4.87;;;2.35;;
75548;SDS011;64133;56.002;37.208;2022-10-16T09:41:13;6.55;;;3.10;;
75548;SDS011;64133;56.002;37.208;2022-10-16T09:46:28;5.62;;;2.45;;
75548;SDS011;64133;56.002;37.208;2022-10-16T09:51:33;7.70;;;2.27;;
75548;SDS011;64133;56.002;37.208;2022-10-16T09:56:38;4.95;;;2.52;;
75548;SDS011;64133;56.002;37.208;2022-10-16T10:01:44;4.95;;;2.05;;
75548;SDS011;64133;56.002;37.208;2022-10-16T10:06:49;7.25;;;2.33;;
75548;SDS011;64133;56.002;37.208;2022-10-16T10:11:54;7.12;;;2.05;;
75548;SDS011;64133;56.002;37.208;2022-10-16T10:17:19;5.28;;;2.40;;
75548;SDS011;64133;56.002;37.208;2022-10-16T10:22:30;4.15;;;2.15;;
75548;SDS011;64133;56.002;37.208;2022-10-16T10:27:37;4.95;;;2.37;;
75548;SDS011;64133;56.002;37.208;2022-10-16T10:38:04;3.67;;;1.75;;
75548;SDS011;64133;56.002;37.208;2022-10-16T10:43:12;5.42;;;2.52;;
75548;SDS011;64133;56.002;37.208;2022-10-16T10:48:29;4.95;;;2.00;;
75548;SDS011;64133;56.002;37.208;2022-10-16T10:53:38;7.78;;;2.60;;
75548;SDS011;64133;56.002;37.208;2022-10-16T10:58:50;6.75;;;2.12;;
75548;SDS011;64133;56.002;37.208;2022-10-16T11:04:28;4.10;;;2.20;;
75548;SDS011;64133;56.002;37.208;2022-10-16T11:09:36;5.33;;;2.50;;
75548;SDS011;64133;56.002;37.208;2022-10-16T11:14:42;6.58;;;2.55;;
75548;SDS011;64133;56.002;37.208;2022-10-16T11:19:46;5.42;;;2.30;;
75548;SDS011;64133;56.002;37.208;2022-10-16T11:24:53;5.25;;;2.40;;
75548;SDS011;64133;56.002;37.208;2022-10-16T11:30:11;3.77;;;1.75;;
75548;SDS011;64133;56.002;37.208;2022-10-16T11:35:15;2.22;;;1.17;;
75548;SDS011;64133;56.002;37.208;2022-10-16T11:40:21;4.85;;;2.77;;
75548;SDS011;64133;56.002;37.208;2022-10-16T11:45:29;4.53;;;2.50;;
75548;SDS011;64133;56.002;37.208;2022-10-16T11:50:35;5.33;;;2.55;;
75548;SDS011;64133;56.002;37.208;2022-10-16T11:55:40;5.05;;;2.02;;
75548;SDS011;64133;56.002;37.208;2022-10-16T12:00:46;4.17;;;2.50;;
75548;SDS011;64133;56.002;37.208;2022-10-16T12:05:55;4.53;;;2.50;;
75548;SDS011;64133;56.002;37.208;2022-10-16T12:11:19;3.98;;;2.05;;
75548;SDS011;64133;56.002;37.208;2022-10-16T12:16:23;4.72;;;2.70;;
75548;SDS011;64133;56.002;37.208;2022-10-16T12:21:30;5.00;;;2.37;;
75548;SDS011;64133;56.002;37.208;2022-10-16T12:26:37;8.30;;;2.30;;
75548;SDS011;64133;56.002;37.208;2022-10-16T12:31:44;5.70;;;2.80;;
75548;SDS011;64133;56.002;37.208;2022-10-16T12:36:48;3.83;;;1.75;;
75548;SDS011;64133;56.002;37.208;2022-10-16T12:42:03;6.28;;;2.35;;
75548;SDS011;64133;56.002;37.208;2022-10-16T12:47:18;7.03;;;3.37;;
75548;SDS011;64133;56.002;37.208;2022-10-16T12:52:25;4.85;;;2.30;;
75548;SDS011;64133;56.002;37.208;2022-10-16T12:57:37;7.20;;;2.70;;
75548;SDS011;64133;56.002;37.208;2022-10-16T13:02:56;4.53;;;1.95;;
75548;SDS011;64133;56.002;37.208;2022-10-16T13:08:06;4.83;;;1.85;;
75548;SDS011;64133;56.002;37.208;2022-10-16T13:13:23;6.00;;;1.80;;
75548;SDS011;64133;56.002;37.208;2022-10-16T13:18:33;3.60;;;1.80;;
75548;SDS011;64133;56.002;37.208;2022-10-16T13:23:41;5.40;;;2.15;;
75548;SDS011;64133;56.002;37.208;2022-10-16T13:28:45;6.87;;;2.10;;
75548;SDS011;64133;56.002;37.208;2022-10-16T13:33:50;6.45;;;2.08;;
75548;SDS011;64133;56.002;37.208;2022-10-16T13:39:06;4.83;;;2.02;;
75548;SDS011;64133;56.002;37.208;2022-10-16T13:44:16;7.92;;;2.65;;
75548;SDS011;64133;56.002;37.208;2022-10-16T13:49:20;4.70;;;2.20;;
75548;SDS011;64133;56.002;37.208;2022-10-16T13:54:25;7.08;;;2.30;;
75548;SDS011;64133;56.002;37.208;2022-10-16T13:59:44;6.22;;;2.80;;
75548;SDS011;64133;56.002;37.208;2022-10-16T14:04:49;5.85;;;2.87;;
75548;SDS011;64133;56.002;37.208;2022-10-16T14:09:54;4.83;;;2.75;;
75548;SDS011;64133;56.002;37.208;2022-10-16T14:14:59;5.37;;;2.77;;
75548;SDS011;64133;56.002;37.208;2022-10-16T14:20:06;8.08;;;2.67;;
75548;SDS011;64133;56.002;37.208;2022-10-16T14:25:23;7.30;;;3.02;;
75548;SDS011;64133;56.002;37.208;2022-10-16T14:30:29;5.85;;;2.33;;
75548;SDS011;64133;56.002;37.208;2022-10-16T14:35:35;6.12;;;2.70;;
75548;SDS011;64133;56.002;37.208;2022-10-16T14:40:45;8.05;;;3.35;;
75548;SDS011;64133;56.002;37.208;2022-10-16T14:45:49;6.85;;;3.70;;
75548;SDS011;64133;56.002;37.208;2022-10-16T14:50:49;6.70;;;3.10;;
75548;SDS011;64133;56.002;37.208;2022-10-16T14:55:54;8.05;;;3.83;;
75548;SDS011;64133;56.002;37.208;2022-10-16T15:00:59;6.67;;;3.87;;
75548;SDS011;64133;56.002;37.208;2022-10-16T15:06:07;10.60;;;4.00;;
75548;SDS011;64133;56.002;37.208;2022-10-16T15:11:13;11.40;;;4.78;;
75548;SDS011;64133;56.002;37.208;2022-10-16T15:16:18;12.23;;;5.95;;
75548;SDS011;64133;56.002;37.208;2022-10-16T15:21:24;13.80;;;6.67;;
75548;SDS011;64133;56.002;37.208;2022-10-16T15:26:28;9.90;;;5.65;;
75548;SDS011;64133;56.002;37.208;2022-10-16T15:31:33;11.97;;;5.60;;
75548;SDS011;64133;56.002;37.208;2022-10-16T15:36:38;12.68;;;6.60;;
75548;SDS011;64133;56.002;37.208;2022-10-16T15:41:44;12.33;;;5.67;;
75548;SDS011;64133;56.002;37.208;2022-10-16T15:46:48;15.88;;;6.92;;
75548;SDS011;64133;56.002;37.208;2022-10-16T15:51:54;8.13;;;4.72;;
75548;SDS011;64133;56.002;37.208;2022-10-16T15:56:59;17.02;;;7.10;;
75548;SDS011;64133;56.002;37.208;2022-10-16T16:02:04;10.10;;;4.10;;
75548;SDS011;64133;56.002;37.208;2022-10-16T16:07:14;13.35;;;6.80;;
75548;SDS011;64133;56.002;37.208;2022-10-16T16:28:57;13.20;;;7.33;;
75548;SDS011;64133;56.002;37.208;2022-10-16T16:34:02;14.20;;;6.40;;
75548;SDS011;64133;56.002;37.208;2022-10-16T16:39:07;12.58;;;6.15;;
75548;SDS011;64133;56.002;37.208;2022-10-16T16:44:12;14.40;;;6.47;;
75548;SDS011;64133;56.002;37.208;2022-10-16T16:49:16;14.13;;;6.10;;
75548;SDS011;64133;56.002;37.208;2022-10-16T16:54:21;13.60;;;5.83;;
75548;SDS011;64133;56.002;37.208;2022-10-16T16:59:26;12.80;;;5.85;;
75548;SDS011;64133;56.002;37.208;2022-10-16T17:04:32;12.28;;;6.22;;
75548;SDS011;64133;56.002;37.208;2022-10-16T17:09:37;10.82;;;6.12;;
75548;SDS011;64133;56.002;37.208;2022-10-16T17:14:42;10.43;;;5.00;;
75548;SDS011;64133;56.002;37.208;2022-10-16T17:19:48;6.47;;;3.47;;
75548;SDS011;64133;56.002;37.208;2022-10-16T17:24:53;9.30;;;4.87;;
75548;SDS011;64133;56.002;37.208;2022-10-16T17:29:58;10.68;;;5.72;;
75548;SDS011;64133;56.002;37.208;2022-10-16T17:35:03;14.73;;;5.50;;
75548;SDS011;64133;56.002;37.208;2022-10-16T17:40:10;8.95;;;4.20;;
75548;SDS011;64133;56.002;37.208;2022-10-16T17:45:15;10.70;;;4.33;;
75548;SDS011;64133;56.002;37.208;2022-10-16T17:50:20;5.97;;;2.87;;
75548;SDS011;64133;56.002;37.208;2022-10-16T17:55:25;8.33;;;4.12;;
75548;SDS011;64133;56.002;37.208;2022-10-16T18:00:30;7.33;;;4.30;;
75548;SDS011;64133;56.002;37.208;2022-10-16T18:10:51;4.28;;;2.52;;
75548;SDS011;64133;56.002;37.208;2022-10-16T18:16:00;7.75;;;4.25;;
75548;SDS011;64133;56.002;37.208;2022-10-16T18:21:06;7.75;;;3.55;;
75548;SDS011;64133;56.002;37.208;2022-10-16T18:26:10;5.53;;;3.08;;
75548;SDS011;64133;56.002;37.208;2022-10-16T18:31:15;10.48;;;4.00;;
75548;SDS011;64133;56.002;37.208;2022-10-16T18:36:24;6.42;;;3.00;;
75548;SDS011;64133;56.002;37.208;2022-10-16T18:41:29;8.38;;;3.58;;
75548;SDS011;64133;56.002;37.208;2022-10-16T18:46:42;5.87;;;3.12;;
75548;SDS011;64133;56.002;37.208;2022-10-16T18:51:42;5.97;;;2.65;;
75548;SDS011;64133;56.002;37.208;2022-10-16T18:56:49;5.40;;;2.80;;
75548;SDS011;64133;56.002;37.208;2022-10-16T19:01:54;6.97;;;2.90;;
75548;SDS011;64133;56.002;37.208;2022-10-16T19:06:59;7.42;;;3.77;;
75548;SDS011;64133;56.002;37.208;2022-10-16T19:12:05;6.80;;;3.15;;
75548;SDS011;64133;56.002;37.208;2022-10-16T19:17:13;6.45;;;4.47;;
75548;SDS011;64133;56.002;37.208;2022-10-16T19:22:22;6.20;;;3.12;;
75548;SDS011;64133;56.002;37.208;2022-10-16T19:27:30;5.47;;;2.52;;
75548;SDS011;64133;56.002;37.208;2022-10-16T19:32:35;7.30;;;3.45;;
75548;SDS011;64133;56.002;37.208;2022-10-16T19:37:40;9.15;;;3.67;;
75548;SDS011;64133;56.002;37.208;2022-10-16T19:42:45;7.25;;;2.33;;
75548;SDS011;64133;56.002;37.208;2022-10-16T19:47:50;4.25;;;2.22;;
75548;SDS011;64133;56.002;37.208;2022-10-16T19:52:55;10.28;;;6.40;;
75548;SDS011;64133;56.002;37.208;2022-10-16T19:58:00;18.90;;;10.90;;
75548;SDS011;64133;56.002;37.208;2022-10-16T20:03:05;19.07;;;10.80;;
75548;SDS011;64133;56.002;37.208;2022-10-16T20:08:10;13.93;;;7.92;;
75548;SDS011;64133;56.002;37.208;2022-10-16T20:13:15;14.15;;;5.80;;
75548;SDS011;64133;56.002;37.208;2022-10-16T20:18:20;9.63;;;5.67;;
75548;SDS011;64133;56.002;37.208;2022-10-16T20:23:25;10.18;;;4.62;;
75548;SDS011;64133;56.002;37.208;2022-10-16T20:28:30;9.13;;;4.53;;
75548;SDS011;64133;56.002;37.208;2022-10-16T20:33:35;4.87;;;2.47;;
75548;SDS011;64133;56.002;37.208;2022-10-16T20:38:40;4.90;;;2.67;;
75548;SDS011;64133;56.002;37.208;2022-10-16T20:43:45;6.62;;;3.20;;
75548;SDS011;64133;56.002;37.208;2022-10-16T20:48:50;5.47;;;2.58;;
75548;SDS011;64133;56.002;37.208;2022-10-16T20:53:57;5.50;;;2.22;;
75548;SDS011;64133;56.002;37.208;2022-10-16T20:59:00;4.33;;;2.25;;
75548;SDS011;64133;56.002;37.208;2022-10-16T21:04:05;7.20;;;3.12;;
75548;SDS011;64133;56.002;37.208;2022-10-16T21:09:10;5.42;;;2.83;;
75548;SDS011;64133;56.002;37.208;2022-10-16T21:14:15;6.05;;;2.33;;
75548;SDS011;64133;56.002;37.208;2022-10-16T21:19:20;5.20;;;2.90;;
75548;SDS011;64133;56.002;37.208;2022-10-16T21:24:25;5.05;;;2.77;;
75548;SDS011;64133;56.002;37.208;2022-10-16T21:29:31;6.75;;;2.95;;
75548;SDS011;64133;56.002;37.208;2022-10-16T21:34:36;6.47;;;2.33;;
75548;SDS011;64133;56.002;37.208;2022-10-16T21:39:41;4.47;;;2.47;;
75548;SDS011;64133;56.002;37.208;2022-10-16T21:44:46;6.05;;;2.83;;
75548;SDS011;64133;56.002;37.208;2022-10-16T21:49:51;6.33;;;2.45;;
75548;SDS011;64133;56.002;37.208;2022-10-16T21:54:56;4.12;;;2.65;;
75548;SDS011;64133;56.002;37.208;2022-10-16T22:00:01;3.33;;;2.08;;
75548;SDS011;64133;56.002;37.208;2022-10-16T22:05:07;5.30;;;2.80;;
75548;SDS011;64133;56.002;37.208;2022-10-16T22:10:13;5.10;;;2.90;;
75548;SDS011;64133;56.002;37.208;2022-10-16T22:15:18;3.45;;;1.67;;
75548;SDS011;64133;56.002;37.208;2022-10-16T22:20:23;6.22;;;3.00;;
75548;SDS011;64133;56.002;37.208;2022-10-16T22:25:28;3.92;;;2.20;;
75548;SDS011;64133;56.002;37.208;2022-10-16T22:30:34;4.20;;;2.60;;
75548;SDS011;64133;56.002;37.208;2022-10-16T22:35:39;4.15;;;2.42;;
75548;SDS011;64133;56.002;37.208;2022-10-16T22:40:44;4.08;;;2.15;;
75548;SDS011;64133;56.002;37.208;2022-10-16T22:45:49;4.12;;;2.30;;
75548;SDS011;64133;56.002;37.208;2022-10-16T22:50:54;3.90;;;2.37;;
75548;SDS011;64133;56.002;37.208;2022-10-16T22:55:59;2.92;;;2.42;;
75548;SDS011;64133;56.002;37.208;2022-10-16T23:01:09;6.65;;;2.50;;
75548;SDS011;64133;56.002;37.208;2022-10-16T23:06:15;6.58;;;2.45;;
75548;SDS011;64133;56.002;37.208;2022-10-16T23:11:20;3.58;;;1.85;;
75548;SDS011;64133;56.002;37.208;2022-10-16T23:16:25;6.33;;;2.40;;
75548;SDS011;64133;56.002;37.208;2022-10-16T23:21:30;3.95;;;2.55;;
75548;SDS011;64133;56.002;37.208;2022-10-16T23:26:35;6.90;;;2.67;;
75548;SDS011;64133;56.002;37.208;2022-10-16T23:31:40;4.15;;;2.42;;
75548;SDS011;64133;56.002;37.208;2022-10-16T23:36:45;6.28;;;2.30;;
75548;SDS011;64133;56.002;37.208;2022-10-16T23:41:50;4.25;;;2.25;;
75548;SDS011;64133;56.002;37.208;2022-10-16T23:46:55;3.65;;;2.30;;
75548;SDS011;64133;56.002;37.208;2022-10-16T23:52:00;3.58;;;2.65;;
75548;SDS011;64133;56.002;37.208;2022-10-16T23:57:05;3.67;;;2.45;;
